Celebrity Galaxy — 9HJH9 — position and weather

sailwx.info

Track history (hours):
 
Tides and Currents Weather Stations Pressure Air Temp Water Temp Dewpoint Dewpoint Depression Visibility Wind Speed Wind Dir Waves Ship Positions

Celebrity Galaxy

Last reported at 2017-Apr-23 16:27 UTC. Time now 2017-Apr-24 23:06 UTC.
Position N 35°53' E 014°31'.

Length 262 m; draft 8.5 m.

Type: Passenger vessel. MMSI: 249051000.

Date/timePositionNaut miles runAvg speedWind from/ knotsBaromVisibWave heightAir tempDewpointWater temp
2017-Apr-23 16:27N 35°53' E 014°31'1 0.1
2017-Apr-23 01:31N 35°54' E 014°31'0 5.8
2017-Apr-23 01:30N 35°54' E 014°31'611.4
2017-Apr-23 01:00N 35°56' E 014°38'917.5
2017-Apr-23 00:30N 35°59' E 014°48'44014.7
2017-Apr-21 18:40N 37°37' E 023°43'318.0
2017-Apr-21 18:30N 37°39' E 023°42'815.8
2017-Apr-21 18:00N 37°47' E 023°38'815.0
2017-Apr-21 17:30N 37°54' E 023°36'2 4.4
2017-Apr-21 17:00N 37°56' E 023°37'0 0.0
2017-Apr-21 16:30N 37°56' E 023°37'0 0.0
2017-Apr-21 16:00N 37°56' E 023°37'0 0.0
2017-Apr-21 15:30N 37°56' E 023°37'0 0.0
2017-Apr-21 15:00N 37°56' E 023°37'0 0.0
2017-Apr-21 14:30N 37°56' E 023°37'0 0.0
2017-Apr-21 13:30N 37°56' E 023°37'0 0.0
2017-Apr-21 13:00N 37°56' E 023°37'0 0.0
2017-Apr-21 12:30N 37°56' E 023°37'0 0.0
2017-Apr-21 11:57N 37°56' E 023°37'0 0.0
2017-Apr-21 11:30N 37°56' E 023°37'0 0.0
2017-Apr-21 11:00N 37°56' E 023°37'0 0.0
2017-Apr-21 10:30N 37°56' E 023°37'0 0.0
2017-Apr-21 10:00N 37°56' E 023°37'0 0.0
2017-Apr-21 09:30N 37°56' E 023°37'0 0.0
2017-Apr-21 08:57N 37°56' E 023°37'0 0.0
2017-Apr-21 08:30N 37°56' E 023°37'0 0.0
2017-Apr-21 08:00N 37°56' E 023°37'0 0.0
2017-Apr-21 07:30N 37°56' E 023°37'0 0.0
2017-Apr-21 07:00N 37°56' E 023°37'0 0.0
2017-Apr-21 06:30N 37°56' E 023°37'0 0.0
2017-Apr-21 06:00N 37°56' E 023°37'0 0.0
2017-Apr-21 05:30N 37°56' E 023°37'0 0.0
2017-Apr-21 05:00N 37°56' E 023°37'0 0.0
2017-Apr-21 04:30N 37°56' E 023°37'0 0.0
2017-Apr-21 04:00N 37°56' E 023°37'0 0.0
2017-Apr-21 03:29N 37°56' E 023°37'0 0.0
2017-Apr-21 02:59N 37°56' E 023°37'0 0.0
2017-Apr-21 02:29N 37°56' E 023°37'0 0.0
2017-Apr-21 01:58N 37°56' E 023°37'0 0.1
2017-Apr-21 01:31N 37°56' E 023°37'1 1.6
2017-Apr-21 01:00N 37°55' E 023°37'611.4
2017-Apr-21 00:31N 37°50' E 023°39'917.4
2017-Apr-21 00:00N 37°42' E 023°44'816.9
2017-Apr-20 23:30N 37°34' E 023°46'  
2017-Apr-18 17:57N 34°34' E 032°36'712.7
2017-Apr-18 17:24N 34°33' E 032°45'512.6
2017-Apr-18 16:59N 34°32' E 032°51'1012.2
2017-Apr-18 16:12N 34°31' E 033°03'310.8
2017-Apr-18 15:56N 34°33' E 033°05'612.2
2017-Apr-18 15:27N 34°38' E 033°04'2 4.0
2017-Apr-18 14:54N 34°39' E 033°01'0 0.0
2017-Apr-18 14:29N 34°39' E 033°01'0 0.0
2017-Apr-18 13:26N 34°39' E 033°01'0 0.0
2017-Apr-18 04:01N 34°39' E 033°01'0 0.2
2017-Apr-18 03:55N 34°39' E 033°01'2 4.1
2017-Apr-18 03:26N 34°39' E 033°04'613.5
2017-Apr-18 02:59N 34°33' E 033°05'916.7
2017-Apr-18 02:28N 34°25' E 033°04'3016.4
2017-Apr-18 00:40N 33°55' E 033°01'814.8
2017-Apr-18 00:08N 33°48' E 032°60'215.2
2017-Apr-17 23:59N 33°45' E 032°59'3515.1
2017-Apr-17 21:41N 33°11' E 032°55'6114.2
2017-Apr-17 17:22N 32°10' E 032°48'514.1
2017-Apr-17 17:00N 32°05' E 032°48'714.2
2017-Apr-17 16:31N 31°58' E 032°47'714.3
2017-Apr-17 16:01N 31°50' E 032°46'2813.1
2017-Apr-17 13:53N 31°31' E 032°23'513.8
2017-Apr-17 13:30N 31°26' E 032°24'1111.8
2017-Apr-17 12:35N 31°16' E 032°21'110.3
2017-Apr-17 12:30N 31°15' E 032°21'4 8.7
2017-Apr-17 12:00N 31°11' E 032°20'4 8.7
2017-Apr-17 11:30N 31°07' E 032°19'5 9.1
2017-Apr-17 11:00N 31°02' E 032°19'5 9.3
2017-Apr-17 10:31N 30°57' E 032°19'  
Track history (hours):
 
Tides and Currents Weather Stations Pressure Air Temp Water Temp Dewpoint Dewpoint Depression Visibility Wind Speed Wind Dir Waves Ship Positions

Celebrity Galaxy

Last reported at 2017-Apr-23 16:27 UTC. Time now 2017-Apr-24 23:06 UTC.
Position N 35°53' E 014°31'.

Length 262 m; draft 8.5 m.

Type: Passenger vessel. MMSI: 249051000.

Date/timePositionNaut miles runAvg speedWind from/ knotsBaromVisibWave heightAir tempDewpointWater temp
2017-Apr-23 16:27N 35°53' E 014°31'1 0.1
2017-Apr-23 01:31N 35°54' E 014°31'0 5.8
2017-Apr-23 01:30N 35°54' E 014°31'611.4
2017-Apr-23 01:00N 35°56' E 014°38'917.5
2017-Apr-23 00:30N 35°59' E 014°48'44014.7
2017-Apr-21 18:40N 37°37' E 023°43'318.0
2017-Apr-21 18:30N 37°39' E 023°42'815.8
2017-Apr-21 18:00N 37°47' E 023°38'815.0
2017-Apr-21 17:30N 37°54' E 023°36'2 4.4
2017-Apr-21 17:00N 37°56' E 023°37'0 0.0
2017-Apr-21 16:30N 37°56' E 023°37'0 0.0
2017-Apr-21 16:00N 37°56' E 023°37'0 0.0
2017-Apr-21 15:30N 37°56' E 023°37'0 0.0
2017-Apr-21 15:00N 37°56' E 023°37'0 0.0
2017-Apr-21 14:30N 37°56' E 023°37'0 0.0
2017-Apr-21 13:30N 37°56' E 023°37'0 0.0
2017-Apr-21 13:00N 37°56' E 023°37'0 0.0
2017-Apr-21 12:30N 37°56' E 023°37'0 0.0
2017-Apr-21 11:57N 37°56' E 023°37'0 0.0
2017-Apr-21 11:30N 37°56' E 023°37'0 0.0
2017-Apr-21 11:00N 37°56' E 023°37'0 0.0
2017-Apr-21 10:30N 37°56' E 023°37'0 0.0
2017-Apr-21 10:00N 37°56' E 023°37'0 0.0
2017-Apr-21 09:30N 37°56' E 023°37'0 0.0
2017-Apr-21 08:57N 37°56' E 023°37'0 0.0
2017-Apr-21 08:30N 37°56' E 023°37'0 0.0
2017-Apr-21 08:00N 37°56' E 023°37'0 0.0
2017-Apr-21 07:30N 37°56' E 023°37'0 0.0
2017-Apr-21 07:00N 37°56' E 023°37'0 0.0
2017-Apr-21 06:30N 37°56' E 023°37'0 0.0
2017-Apr-21 06:00N 37°56' E 023°37'0 0.0
2017-Apr-21 05:30N 37°56' E 023°37'0 0.0
2017-Apr-21 05:00N 37°56' E 023°37'0 0.0
2017-Apr-21 04:30N 37°56' E 023°37'0 0.0
2017-Apr-21 04:00N 37°56' E 023°37'0 0.0
2017-Apr-21 03:29N 37°56' E 023°37'0 0.0
2017-Apr-21 02:59N 37°56' E 023°37'0 0.0
2017-Apr-21 02:29N 37°56' E 023°37'0 0.0
2017-Apr-21 01:58N 37°56' E 023°37'0 0.1
2017-Apr-21 01:31N 37°56' E 023°37'1 1.6
2017-Apr-21 01:00N 37°55' E 023°37'611.4
2017-Apr-21 00:31N 37°50' E 023°39'917.4
2017-Apr-21 00:00N 37°42' E 023°44'816.9
2017-Apr-20 23:30N 37°34' E 023°46'  
2017-Apr-18 17:57N 34°34' E 032°36'712.7
2017-Apr-18 17:24N 34°33' E 032°45'512.6
2017-Apr-18 16:59N 34°32' E 032°51'1012.2
2017-Apr-18 16:12N 34°31' E 033°03'310.8
2017-Apr-18 15:56N 34°33' E 033°05'612.2
2017-Apr-18 15:27N 34°38' E 033°04'2 4.0
2017-Apr-18 14:54N 34°39' E 033°01'0 0.0
2017-Apr-18 14:29N 34°39' E 033°01'0 0.0
2017-Apr-18 13:26N 34°39' E 033°01'0 0.0
2017-Apr-18 04:01N 34°39' E 033°01'0 0.2
2017-Apr-18 03:55N 34°39' E 033°01'2 4.1
2017-Apr-18 03:26N 34°39' E 033°04'613.5
2017-Apr-18 02:59N 34°33' E 033°05'916.7
2017-Apr-18 02:28N 34°25' E 033°04'3016.4
2017-Apr-18 00:40N 33°55' E 033°01'814.8
2017-Apr-18 00:08N 33°48' E 032°60'215.2
2017-Apr-17 23:59N 33°45' E 032°59'3515.1
2017-Apr-17 21:41N 33°11' E 032°55'6114.2
2017-Apr-17 17:22N 32°10' E 032°48'514.1
2017-Apr-17 17:00N 32°05' E 032°48'714.2
2017-Apr-17 16:31N 31°58' E 032°47'714.3
2017-Apr-17 16:01N 31°50' E 032°46'2813.1
2017-Apr-17 13:53N 31°31' E 032°23'513.8
2017-Apr-17 13:30N 31°26' E 032°24'1111.8
2017-Apr-17 12:35N 31°16' E 032°21'110.3
2017-Apr-17 12:30N 31°15' E 032°21'4 8.7
2017-Apr-17 12:00N 31°11' E 032°20'4 8.7
2017-Apr-17 11:30N 31°07' E 032°19'5 9.1
2017-Apr-17 11:00N 31°02' E 032°19'5 9.3
2017-Apr-17 10:31N 30°57' E 032°19'  

Dump ship's entire track history